sensor_id;sensor_type;location;lat;lon;timestamp;pressure;altitude;pressure_sealevel;temperature;humidity
16331;BME280;8275;48.206;16.340;2023-01-28T00:00:00;99595.97;;;5.07;50.13
16331;BME280;8275;48.206;16.340;2023-01-28T00:02:28;99597.84;;;5.07;50.45
16331;BME280;8275;48.206;16.340;2023-01-28T00:04:59;99590.53;;;5.07;50.14
16331;BME280;8275;48.206;16.340;2023-01-28T00:07:27;99598.69;;;5.07;50.60
16331;BME280;8275;48.206;16.340;2023-01-28T00:09:56;99599.53;;;5.08;50.55
16331;BME280;8275;48.206;16.340;2023-01-28T00:12:24;99603.91;;;5.09;50.28
16331;BME280;8275;48.206;16.340;2023-01-28T00:14:53;99607.66;;;5.08;50.38
16331;BME280;8275;48.206;16.340;2023-01-28T00:17:21;99608.28;;;5.10;50.76
16331;BME280;8275;48.206;16.340;2023-01-28T00:19:50;99609.13;;;5.10;50.38
16331;BME280;8275;48.206;16.340;2023-01-28T00:22:19;99607.25;;;5.11;50.67
16331;BME280;8275;48.206;16.340;2023-01-28T00:24:48;99605.56;;;5.10;49.99
16331;BME280;8275;48.206;16.340;2023-01-28T00:27:16;99609.97;;;5.11;50.55
16331;BME280;8275;48.206;16.340;2023-01-28T00:29:44;99616.19;;;5.11;49.80
16331;BME280;8275;48.206;16.340;2023-01-28T00:32:14;99599.09;;;5.11;50.09
16331;BME280;8275;48.206;16.340;2023-01-28T00:34:42;99604.53;;;5.11;50.37
16331;BME280;8275;48.206;16.340;2023-01-28T00:37:11;99601.81;;;5.11;49.97
16331;BME280;8275;48.206;16.340;2023-01-28T00:39:40;99603.69;;;5.10;50.17
16331;BME280;8275;48.206;16.340;2023-01-28T00:42:09;99594.72;;;5.10;50.74
16331;BME280;8275;48.206;16.340;2023-01-28T00:44:37;99593.06;;;5.09;50.51
16331;BME280;8275;48.206;16.340;2023-01-28T00:47:06;99598.69;;;5.07;50.30
16331;BME280;8275;48.206;16.340;2023-01-28T00:49:34;99594.31;;;5.06;50.06
16331;BME280;8275;48.206;16.340;2023-01-28T00:52:03;99591.59;;;5.06;50.51
16331;BME280;8275;48.206;16.340;2023-01-28T00:54:31;99588.25;;;5.04;50.29
16331;BME280;8275;48.206;16.340;2023-01-28T00:57:01;99593.03;;;5.02;50.08
16331;BME280;8275;48.206;16.340;2023-01-28T00:59:30;99590.13;;;5.04;50.56
16331;BME280;8275;48.206;16.340;2023-01-28T01:01:58;99595.56;;;5.04;50.49
16331;BME280;8275;48.206;16.340;2023-01-28T01:04:38;99592.25;;;5.02;50.64
16331;BME280;8275;48.206;16.340;2023-01-28T01:07:07;99601.19;;;5.02;50.25
16331;BME280;8275;48.206;16.340;2023-01-28T01:09:35;99593.03;;;5.02;50.74
16331;BME280;8275;48.206;16.340;2023-01-28T01:12:06;99595.75;;;5.02;50.61
16331;BME280;8275;48.206;16.340;2023-01-28T01:14:35;99595.16;;;5.00;50.53
16331;BME280;8275;48.206;16.340;2023-01-28T01:17:03;99599.75;;;5.00;50.82
16331;BME280;8275;48.206;16.340;2023-01-28T01:19:31;99597.84;;;5.00;50.99
16331;BME280;8275;48.206;16.340;2023-01-28T01:22:00;99597.84;;;5.00;50.44
16331;BME280;8275;48.206;16.340;2023-01-28T01:24:28;99608.72;;;5.00;50.29
16331;BME280;8275;48.206;16.340;2023-01-28T01:27:00;99606.00;;;5.00;50.30
16331;BME280;8275;48.206;16.340;2023-01-28T01:29:29;99608.09;;;4.98;50.63
16331;BME280;8275;48.206;16.340;2023-01-28T01:31:59;99613.53;;;4.98;50.41
16331;BME280;8275;48.206;16.340;2023-01-28T01:34:28;99611.88;;;4.97;50.49
16331;BME280;8275;48.206;16.340;2023-01-28T01:36:56;99604.53;;;4.97;50.23
16331;BME280;8275;48.206;16.340;2023-01-28T01:39:25;99603.72;;;4.97;50.50
16331;BME280;8275;48.206;16.340;2023-01-28T01:41:53;99606.22;;;4.98;50.74
16331;BME280;8275;48.206;16.340;2023-01-28T01:45:03;99615.63;;;4.96;50.89
16331;BME280;8275;48.206;16.340;2023-01-28T01:47:40;99611.03;;;4.96;50.28
16331;BME280;8275;48.206;16.340;2023-01-28T01:50:17;99615.84;;;4.94;50.36
16331;BME280;8275;48.206;16.340;2023-01-28T01:52:54;99608.50;;;4.95;50.49
16331;BME280;8275;48.206;16.340;2023-01-28T01:55:25;99611.22;;;4.95;50.65
16331;BME280;8275;48.206;16.340;2023-01-28T01:57:58;99621.28;;;4.94;50.79
16331;BME280;8275;48.206;16.340;2023-01-28T02:00:31;99616.88;;;4.93;50.74
16331;BME280;8275;48.206;16.340;2023-01-28T02:03:00;99612.28;;;4.94;50.63
16331;BME280;8275;48.206;16.340;2023-01-28T02:05:28;99613.13;;;4.94;50.93
16331;BME280;8275;48.206;16.340;2023-01-28T02:07:58;99612.06;;;4.95;50.62
16331;BME280;8275;48.206;16.340;2023-01-28T02:10:51;99614.16;;;4.93;50.67
16331;BME280;8275;48.206;16.340;2023-01-28T02:13:25;99612.28;;;4.94;50.61
16331;BME280;8275;48.206;16.340;2023-01-28T02:15:58;99616.66;;;4.95;50.92
16331;BME280;8275;48.206;16.340;2023-01-28T02:18:28;99615.84;;;4.94;50.89
16331;BME280;8275;48.206;16.340;2023-01-28T02:21:30;99615.00;;;4.94;50.68
16331;BME280;8275;48.206;16.340;2023-01-28T02:24:28;99617.09;;;4.92;50.52
16331;BME280;8275;48.206;16.340;2023-01-28T02:27:19;99613.31;;;4.93;50.83
16331;BME280;8275;48.206;16.340;2023-01-28T02:29:55;99615.41;;;4.91;50.68
16331;BME280;8275;48.206;16.340;2023-01-28T02:32:33;99608.50;;;4.95;50.56
16331;BME280;8275;48.206;16.340;2023-01-28T02:35:10;99612.69;;;4.97;50.96
16331;BME280;8275;48.206;16.340;2023-01-28T02:37:46;99613.53;;;4.98;50.76
16331;BME280;8275;48.206;16.340;2023-01-28T02:40:21;99617.31;;;4.97;50.58
16331;BME280;8275;48.206;16.340;2023-01-28T02:42:53;99612.69;;;4.97;50.94
16331;BME280;8275;48.206;16.340;2023-01-28T02:45:26;99607.25;;;4.97;50.91
16331;BME280;8275;48.206;16.340;2023-01-28T02:48:17;99618.13;;;4.97;50.69
16331;BME280;8275;48.206;16.340;2023-01-28T02:50:52;99608.31;;;4.96;51.37
16331;BME280;8275;48.206;16.340;2023-01-28T02:53:29;99617.31;;;4.97;51.04
16331;BME280;8275;48.206;16.340;2023-01-28T02:56:21;99613.75;;;4.96;51.08
16331;BME280;8275;48.206;16.340;2023-01-28T02:59:00;99610.41;;;4.94;51.28
16331;BME280;8275;48.206;16.340;2023-01-28T03:01:55;99617.31;;;4.97;51.71
16331;BME280;8275;48.206;16.340;2023-01-28T03:04:31;99616.25;;;4.98;51.18
16331;BME280;8275;48.206;16.340;2023-01-28T03:07:06;99618.13;;;4.97;51.35
16331;BME280;8275;48.206;16.340;2023-01-28T03:09:38;99619.38;;;4.95;51.18
16331;BME280;8275;48.206;16.340;2023-01-28T03:12:13;99615.22;;;4.99;51.79
16331;BME280;8275;48.206;16.340;2023-01-28T03:15:05;99614.59;;;4.97;51.66
16331;BME280;8275;48.206;16.340;2023-01-28T03:18:00;99617.50;;;4.95;51.27
16331;BME280;8275;48.206;16.340;2023-01-28T03:20:53;99616.03;;;4.93;51.60
16331;BME280;8275;48.206;16.340;2023-01-28T03:23:51;99630.69;;;4.92;52.31
16331;BME280;8275;48.206;16.340;2023-01-28T03:26:45;99620.22;;;4.89;52.44
16331;BME280;8275;48.206;16.340;2023-01-28T03:29:37;99627.34;;;4.90;52.43
16331;BME280;8275;48.206;16.340;2023-01-28T03:32:27;99622.09;;;4.88;52.87
16331;BME280;8275;48.206;16.340;2023-01-28T03:35:15;99629.44;;;4.88;52.85
16331;BME280;8275;48.206;16.340;2023-01-28T03:38:03;99632.97;;;4.88;52.78
16331;BME280;8275;48.206;16.340;2023-01-28T03:40:49;99629.44;;;4.88;52.73
16331;BME280;8275;48.206;16.340;2023-01-28T03:43:18;99623.78;;;4.89;53.41
16331;BME280;8275;48.206;16.340;2023-01-28T03:45:47;99635.25;;;4.91;53.45
16331;BME280;8275;48.206;16.340;2023-01-28T03:48:18;99631.09;;;4.89;53.31
16331;BME280;8275;48.206;16.340;2023-01-28T03:50:48;99633.81;;;4.89;53.66
16331;BME280;8275;48.206;16.340;2023-01-28T03:53:18;99640.91;;;4.90;53.46
16331;BME280;8275;48.206;16.340;2023-01-28T03:55:48;99633.59;;;4.90;53.65
16331;BME280;8275;48.206;16.340;2023-01-28T03:58:18;99635.25;;;4.91;53.83
16331;BME280;8275;48.206;16.340;2023-01-28T04:00:47;99632.78;;;4.90;54.21
16331;BME280;8275;48.206;16.340;2023-01-28T04:03:18;99631.72;;;4.91;54.02
16331;BME280;8275;48.206;16.340;2023-01-28T04:05:58;99637.34;;;4.89;53.77
16331;BME280;8275;48.206;16.340;2023-01-28T04:08:27;99634.66;;;4.89;54.33
16331;BME280;8275;48.206;16.340;2023-01-28T04:10:56;99633.81;;;4.89;53.80
16331;BME280;8275;48.206;16.340;2023-01-28T04:13:24;99638.19;;;4.90;53.78
16331;BME280;8275;48.206;16.340;2023-01-28T04:15:53;99630.88;;;4.90;53.75
16331;BME280;8275;48.206;16.340;2023-01-28T04:18:21;99639.00;;;4.90;54.10
16331;BME280;8275;48.206;16.340;2023-01-28T04:20:54;99637.97;;;4.91;53.95
16331;BME280;8275;48.206;16.340;2023-01-28T04:23:23;99632.56;;;4.91;53.89
16331;BME280;8275;48.206;16.340;2023-01-28T04:25:51;99639.84;;;4.91;54.40
16331;BME280;8275;48.206;16.340;2023-01-28T04:28:20;99639.00;;;4.90;53.88
16331;BME280;8275;48.206;16.340;2023-01-28T04:30:48;99637.34;;;4.89;53.87
16331;BME280;8275;48.206;16.340;2023-01-28T04:33:17;99648.44;;;4.88;54.05
16331;BME280;8275;48.206;16.340;2023-01-28T04:35:45;99636.75;;;4.87;54.31
16331;BME280;8275;48.206;16.340;2023-01-28T04:38:15;99643.81;;;4.88;53.88
16331;BME280;8275;48.206;16.340;2023-01-28T04:40:44;99643.19;;;4.86;54.37
16331;BME280;8275;48.206;16.340;2023-01-28T04:43:16;99644.03;;;4.87;54.27
16331;BME280;8275;48.206;16.340;2023-01-28T04:45:44;99646.97;;;4.85;54.06
16331;BME280;8275;48.206;16.340;2023-01-28T04:48:13;99648.63;;;4.86;54.71
16331;BME280;8275;48.206;16.340;2023-01-28T04:50:43;99650.31;;;4.87;54.58
16331;BME280;8275;48.206;16.340;2023-01-28T04:53:12;99645.72;;;4.88;54.45
16331;BME280;8275;48.206;16.340;2023-01-28T04:55:44;99659.06;;;4.89;54.77
16331;BME280;8275;48.206;16.340;2023-01-28T04:58:12;99659.06;;;4.89;54.65
16331;BME280;8275;48.206;16.340;2023-01-28T05:00:41;99658.22;;;4.89;54.25
16331;BME280;8275;48.206;16.340;2023-01-28T05:03:09;99659.06;;;4.89;54.76
16331;BME280;8275;48.206;16.340;2023-01-28T05:05:38;99653.88;;;4.88;54.67
16331;BME280;8275;48.206;16.340;2023-01-28T05:08:07;99654.69;;;4.88;54.91
16331;BME280;8275;48.206;16.340;2023-01-28T05:10:36;99660.94;;;4.89;55.19
16331;BME280;8275;48.206;16.340;2023-01-28T05:13:08;99660.72;;;4.90;54.95
16331;BME280;8275;48.206;16.340;2023-01-28T05:15:36;99646.34;;;4.90;55.22
16331;BME280;8275;48.206;16.340;2023-01-28T05:18:05;99659.69;;;4.91;55.09
16331;BME280;8275;48.206;16.340;2023-01-28T05:20:33;99660.72;;;4.90;55.23
16331;BME280;8275;48.206;16.340;2023-01-28T05:23:02;99662.41;;;4.91;55.03
16331;BME280;8275;48.206;16.340;2023-01-28T05:25:30;99663.03;;;4.93;55.23
16331;BME280;8275;48.206;16.340;2023-01-28T05:27:59;99670.13;;;4.94;55.50
16331;BME280;8275;48.206;16.340;2023-01-28T05:30:29;99669.09;;;4.95;55.24
16331;BME280;8275;48.206;16.340;2023-01-28T05:32:57;99665.34;;;4.96;55.17
16331;BME280;8275;48.206;16.340;2023-01-28T05:35:25;99667.81;;;4.98;55.18
16331;BME280;8275;48.206;16.340;2023-01-28T05:37:54;99670.53;;;4.98;55.55
16331;BME280;8275;48.206;16.340;2023-01-28T05:40:22;99663.47;;;4.97;55.24
16331;BME280;8275;48.206;16.340;2023-01-28T05:42:51;99662.63;;;4.96;54.91
16331;BME280;8275;48.206;16.340;2023-01-28T05:45:19;99660.94;;;4.95;55.07
16331;BME280;8275;48.206;16.340;2023-01-28T05:47:49;99667.22;;;4.96;55.66
16331;BME280;8275;48.206;16.340;2023-01-28T05:50:18;99674.09;;;4.98;55.48
16331;BME280;8275;48.206;16.340;2023-01-28T05:52:46;99667.81;;;4.98;55.50
16331;BME280;8275;48.206;16.340;2023-01-28T05:55:15;99670.13;;;5.01;55.43
16331;BME280;8275;48.206;16.340;2023-01-28T05:57:47;99671.78;;;5.02;55.84
16331;BME280;8275;48.206;16.340;2023-01-28T06:00:17;99671.78;;;5.02;55.98
16331;BME280;8275;48.206;16.340;2023-01-28T06:02:45;99671.59;;;5.04;55.99
16331;BME280;8275;48.206;16.340;2023-01-28T06:05:15;99669.72;;;5.04;55.57
16331;BME280;8275;48.206;16.340;2023-01-28T06:07:44;99669.72;;;5.04;56.12
16331;BME280;8275;48.206;16.340;2023-01-28T06:10:13;99674.09;;;5.05;55.45
16331;BME280;8275;48.206;16.340;2023-01-28T06:12:44;99676.81;;;5.05;56.11
16331;BME280;8275;48.206;16.340;2023-01-28T06:15:12;99682.00;;;5.07;55.92
16331;BME280;8275;48.206;16.340;2023-01-28T06:17:41;99683.69;;;5.08;55.83
16331;BME280;8275;48.206;16.340;2023-01-28T06:20:10;99684.53;;;5.08;56.05
16331;BME280;8275;48.206;16.340;2023-01-28T06:22:41;99696.63;;;5.12;56.43
16331;BME280;8275;48.206;16.340;2023-01-28T06:25:09;99688.50;;;5.12;56.20
16331;BME280;8275;48.206;16.340;2023-01-28T06:27:38;99689.34;;;5.13;56.33
16331;BME280;8275;48.206;16.340;2023-01-28T06:30:09;99686.63;;;5.13;56.43
16331;BME280;8275;48.206;16.340;2023-01-28T06:32:37;99696.41;;;5.14;56.60
16331;BME280;8275;48.206;16.340;2023-01-28T06:35:07;99697.25;;;5.14;56.38
16331;BME280;8275;48.206;16.340;2023-01-28T06:37:35;99703.53;;;5.15;56.24
16331;BME280;8275;48.206;16.340;2023-01-28T06:40:09;99706.47;;;5.13;56.53
16331;BME280;8275;48.206;16.340;2023-01-28T06:42:37;99705.41;;;5.14;56.71
16331;BME280;8275;48.206;16.340;2023-01-28T06:45:07;99697.47;;;5.13;56.75
16331;BME280;8275;48.206;16.340;2023-01-28T06:47:38;99718.13;;;5.14;56.59
16331;BME280;8275;48.206;16.340;2023-01-28T06:50:08;99716.25;;;5.14;56.94
16331;BME280;8275;48.206;16.340;2023-01-28T06:52:36;99716.06;;;5.16;56.52
16331;BME280;8275;48.206;16.340;2023-01-28T06:55:07;99723.78;;;5.19;56.85
16331;BME280;8275;48.206;16.340;2023-01-28T06:57:37;99729.84;;;5.21;56.69
16331;BME280;8275;48.206;16.340;2023-01-28T07:00:09;99726.09;;;5.22;56.64
16331;BME280;8275;48.206;16.340;2023-01-28T07:02:40;99739.44;;;5.23;56.67
16331;BME280;8275;48.206;16.340;2023-01-28T07:05:09;99730.03;;;5.26;57.40
16331;BME280;8275;48.206;16.340;2023-01-28T07:07:38;99746.97;;;5.28;57.27
16331;BME280;8275;48.206;16.340;2023-01-28T07:10:10;99731.09;;;5.25;57.03
16331;BME280;8275;48.206;16.340;2023-01-28T07:12:39;99738.63;;;5.29;56.71
16331;BME280;8275;48.206;16.340;2023-01-28T07:15:09;99736.72;;;5.30;56.79
16331;BME280;8275;48.206;16.340;2023-01-28T07:17:38;99731.28;;;5.30;56.98
16331;BME280;8275;48.206;16.340;2023-01-28T07:20:10;99730.47;;;5.29;57.26
16331;BME280;8275;48.206;16.340;2023-01-28T07:22:41;99729.63;;;5.29;57.00
16331;BME280;8275;48.206;16.340;2023-01-28T07:25:12;99728.78;;;5.28;56.56
16331;BME280;8275;48.206;16.340;2023-01-28T07:27:47;99715.44;;;5.27;56.75
16331;BME280;8275;48.206;16.340;2023-01-28T07:30:17;99722.72;;;5.26;57.73
16331;BME280;8275;48.206;16.340;2023-01-28T07:32:51;99720.00;;;5.26;57.70
16331;BME280;8275;48.206;16.340;2023-01-28T07:35:20;99729.63;;;5.29;57.48
16331;BME280;8275;48.206;16.340;2023-01-28T07:37:52;99736.72;;;5.30;57.07
16331;BME280;8275;48.206;16.340;2023-01-28T07:40:23;99732.13;;;5.30;57.37
16331;BME280;8275;48.206;16.340;2023-01-28T07:42:52;99734.66;;;5.32;57.47
16331;BME280;8275;48.206;16.340;2023-01-28T07:45:24;99740.09;;;5.32;57.76
16331;BME280;8275;48.206;16.340;2023-01-28T07:47:54;99741.50;;;5.34;57.01
16331;BME280;8275;48.206;16.340;2023-01-28T07:50:24;99732.31;;;5.35;57.63
16331;BME280;8275;48.206;16.340;2023-01-28T07:52:52;99738.59;;;5.36;57.12
16331;BME280;8275;48.206;16.340;2023-01-28T07:55:22;99741.09;;;5.37;57.45
16331;BME280;8275;48.206;16.340;2023-01-28T07:57:53;99747.38;;;5.38;57.75
16331;BME280;8275;48.206;16.340;2023-01-28T08:00:24;99752.59;;;5.39;57.89
16331;BME280;8275;48.206;16.340;2023-01-28T08:02:55;99754.03;;;5.42;57.34
16331;BME280;8275;48.206;16.340;2023-01-28T08:05:26;99753.81;;;5.43;57.82
16331;BME280;8275;48.206;16.340;2023-01-28T08:07:57;99759.91;;;5.45;57.54
16331;BME280;8275;48.206;16.340;2023-01-28T08:10:27;99762.63;;;5.45;57.35
16331;BME280;8275;48.206;16.340;2023-01-28T08:12:57;99767.84;;;5.47;57.35
16331;BME280;8275;48.206;16.340;2023-01-28T08:15:26;99767.63;;;5.48;57.32
16331;BME280;8275;48.206;16.340;2023-01-28T08:17:56;99767.63;;;5.48;57.58
16331;BME280;8275;48.206;16.340;2023-01-28T08:20:27;99769.06;;;5.51;57.41
16331;BME280;8275;48.206;16.340;2023-01-28T08:23:05;99773.66;;;5.50;57.46
16331;BME280;8275;48.206;16.340;2023-01-28T08:25:36;99776.38;;;5.50;57.18
16331;BME280;8275;48.206;16.340;2023-01-28T08:28:05;99777.84;;;5.53;57.48
16331;BME280;8275;48.206;16.340;2023-01-28T08:30:34;99786.84;;;5.53;57.66
16331;BME280;8275;48.206;16.340;2023-01-28T08:33:04;99781.41;;;5.53;57.46
16331;BME280;8275;48.206;16.340;2023-01-28T08:35:33;99784.75;;;5.55;57.75
16331;BME280;8275;48.206;16.340;2023-01-28T08:38:03;99791.25;;;5.54;57.88
16331;BME280;8275;48.206;16.340;2023-01-28T08:40:32;99785.81;;;5.54;58.10
16331;BME280;8275;48.206;16.340;2023-01-28T08:43:03;99787.47;;;5.55;58.09
16331;BME280;8275;48.206;16.340;2023-01-28T08:45:31;99789.34;;;5.55;58.25
16331;BME280;8275;48.206;16.340;2023-01-28T08:48:02;99797.31;;;5.56;58.04
16331;BME280;8275;48.206;16.340;2023-01-28T08:50:34;99795.44;;;5.57;57.96
16331;BME280;8275;48.206;16.340;2023-01-28T08:53:05;99799.56;;;5.59;58.19
16331;BME280;8275;48.206;16.340;2023-01-28T08:55:34;99792.25;;;5.60;58.73
16331;BME280;8275;48.206;16.340;2023-01-28T08:58:06;99805.84;;;5.60;58.13
16331;BME280;8275;48.206;16.340;2023-01-28T09:00:35;99790.16;;;5.62;57.95
16331;BME280;8275;48.206;16.340;2023-01-28T09:03:04;99800.22;;;5.61;58.93
16331;BME280;8275;48.206;16.340;2023-01-28T09:05:33;99804.81;;;5.61;58.05
16331;BME280;8275;48.206;16.340;2023-01-28T09:08:02;99800.22;;;5.61;58.39
16331;BME280;8275;48.206;16.340;2023-01-28T09:10:31;99811.09;;;5.61;58.82
16331;BME280;8275;48.206;16.340;2023-01-28T09:13:06;99803.97;;;5.60;57.97
16331;BME280;8275;48.206;16.340;2023-01-28T09:15:35;99806.47;;;5.62;58.84
16331;BME280;8275;48.206;16.340;2023-01-28T09:18:04;99812.75;;;5.62;58.16
16331;BME280;8275;48.206;16.340;2023-01-28T09:20:33;99815.47;;;5.62;58.73
16331;BME280;8275;48.206;16.340;2023-01-28T09:23:02;99811.72;;;5.63;58.25
16331;BME280;8275;48.206;16.340;2023-01-28T09:25:30;99825.09;;;5.65;58.86
16331;BME280;8275;48.206;16.340;2023-01-28T09:27:59;99812.34;;;5.65;58.99
16331;BME280;8275;48.206;16.340;2023-01-28T09:30:29;99827.59;;;5.66;58.48
16331;BME280;8275;48.206;16.340;2023-01-28T09:32:57;99823.59;;;5.69;58.90
16331;BME280;8275;48.206;16.340;2023-01-28T09:35:26;99820.69;;;5.71;58.54
16331;BME280;8275;48.206;16.340;2023-01-28T09:37:56;99809.59;;;5.72;58.91
16331;BME280;8275;48.206;16.340;2023-01-28T09:40:34;99819.44;;;5.73;58.56
16331;BME280;8275;48.206;16.340;2023-01-28T09:43:29;99823.81;;;5.74;59.07
16331;BME280;8275;48.206;16.340;2023-01-28T09:46:04;99827.16;;;5.76;58.56
16331;BME280;8275;48.206;16.340;2023-01-28T09:48:39;99820.47;;;5.79;58.40
16331;BME280;8275;48.206;16.340;2023-01-28T09:51:16;99831.94;;;5.81;58.79
16331;BME280;8275;48.206;16.340;2023-01-28T09:53:49;99830.69;;;5.83;58.71
16331;BME280;8275;48.206;16.340;2023-01-28T09:56:25;99831.53;;;5.84;58.74
16331;BME280;8275;48.206;16.340;2023-01-28T09:58:57;99830.53;;;5.85;59.44
16331;BME280;8275;48.206;16.340;2023-01-28T10:01:39;99834.06;;;5.85;58.49
16331;BME280;8275;48.206;16.340;2023-01-28T10:04:25;99823.19;;;5.85;58.66
16331;BME280;8275;48.206;16.340;2023-01-28T10:07:12;99818.59;;;5.86;59.41
16331;BME280;8275;48.206;16.340;2023-01-28T10:09:49;99818.59;;;5.86;58.42
16331;BME280;8275;48.206;16.340;2023-01-28T10:15:56;99817.56;;;5.87;58.62
16331;BME280;8275;48.206;16.340;2023-01-28T10:18:34;99818.19;;;5.89;58.72
16331;BME280;8275;48.206;16.340;2023-01-28T10:21:12;99817.97;;;5.90;58.67
16331;BME280;8275;48.206;16.340;2023-01-28T10:23:55;99808.75;;;5.91;59.26
16331;BME280;8275;48.206;16.340;2023-01-28T10:26:32;99804.13;;;5.92;59.04
16331;BME280;8275;48.206;16.340;2023-01-28T10:29:10;99808.53;;;5.93;59.37
16331;BME280;8275;48.206;16.340;2023-01-28T10:31:50;99812.72;;;5.95;58.76
16331;BME280;8275;48.206;16.340;2023-01-28T10:34:21;99813.97;;;5.99;59.03
16331;BME280;8275;48.206;16.340;2023-01-28T10:36:50;99814.38;;;6.03;58.27
16331;BME280;8275;48.206;16.340;2023-01-28T10:39:21;99808.72;;;6.04;58.85
16331;BME280;8275;48.206;16.340;2023-01-28T10:41:52;99819.19;;;6.07;58.88
16331;BME280;8275;48.206;16.340;2023-01-28T10:44:33;99815.38;;;6.08;58.77
16331;BME280;8275;48.206;16.340;2023-01-28T10:47:09;99818.53;;;6.12;59.11
16331;BME280;8275;48.206;16.340;2023-01-28T10:49:44;99817.28;;;6.14;59.17
16331;BME280;8275;48.206;16.340;2023-01-28T10:52:14;99808.03;;;6.15;59.26
16331;BME280;8275;48.206;16.340;2023-01-28T10:54:44;99814.56;;;6.14;59.17
16331;BME280;8275;48.206;16.340;2023-01-28T10:57:16;99814.75;;;6.13;59.03
16331;BME280;8275;48.206;16.340;2023-01-28T10:59:46;99810.75;;;6.15;58.72
16331;BME280;8275;48.206;16.340;2023-01-28T11:02:27;99815.16;;;6.16;59.02
16331;BME280;8275;48.206;16.340;2023-01-28T11:05:06;99817.28;;;6.14;58.87
16331;BME280;8275;48.206;16.340;2023-01-28T11:07:35;99820.19;;;6.13;58.41
16331;BME280;8275;48.206;16.340;2023-01-28T11:10:28;99821.66;;;6.09;58.72
16331;BME280;8275;48.206;16.340;2023-01-28T11:13:00;99812.66;;;6.08;58.77
16331;BME280;8275;48.206;16.340;2023-01-28T11:15:29;99823.78;;;6.07;58.86
16331;BME280;8275;48.206;16.340;2023-01-28T11:18:00;99817.50;;;6.06;58.79
16331;BME280;8275;48.206;16.340;2023-01-28T11:20:37;99817.09;;;6.03;58.26
16331;BME280;8275;48.206;16.340;2023-01-28T11:23:18;99824.66;;;6.01;58.54
16331;BME280;8275;48.206;16.340;2023-01-28T11:26:00;99820.47;;;5.98;58.65
16331;BME280;8275;48.206;16.340;2023-01-28T11:28:31;99831.34;;;5.98;58.89
16331;BME280;8275;48.206;16.340;2023-01-28T11:31:01;99811.47;;;5.98;58.62
16331;BME280;8275;48.206;16.340;2023-01-28T11:33:36;99821.50;;;5.97;58.60
16331;BME280;8275;48.206;16.340;2023-01-28T11:36:13;99825.06;;;5.98;59.02
16331;BME280;8275;48.206;16.340;2023-01-28T11:38:51;99822.34;;;5.98;59.11
16331;BME280;8275;48.206;16.340;2023-01-28T11:41:27;99826.53;;;6.00;59.38
16331;BME280;8275;48.206;16.340;2023-01-28T11:43:58;99816.03;;;6.04;59.40
16331;BME280;8275;48.206;16.340;2023-01-28T11:46:47;99816.88;;;6.04;58.89
16331;BME280;8275;48.206;16.340;2023-01-28T11:49:27;99818.34;;;6.07;59.72
16331;BME280;8275;48.206;16.340;2023-01-28T11:52:05;99817.28;;;6.08;59.31
16331;BME280;8275;48.206;16.340;2023-01-28T11:54:49;99809.94;;;6.08;58.85
16331;BME280;8275;48.206;16.340;2023-01-28T11:57:23;99810.38;;;6.12;59.39
16331;BME280;8275;48.206;16.340;2023-01-28T12:02:54;99813.91;;;6.19;58.37
16331;BME280;8275;48.206;16.340;2023-01-28T12:05:54;99800.31;;;6.19;58.24
16331;BME280;8275;48.206;16.340;2023-01-28T12:08:28;99812.84;;;6.20;58.54
16331;BME280;8275;48.206;16.340;2023-01-28T12:11:18;99814.72;;;6.19;58.76
16331;BME280;8275;48.206;16.340;2023-01-28T12:14:22;99817.88;;;6.16;58.54
16331;BME280;8275;48.206;16.340;2023-01-28T12:17:02;99821.88;;;6.14;58.14
16331;BME280;8275;48.206;16.340;2023-01-28T12:19:51;99815.59;;;6.13;57.78
16331;BME280;8275;48.206;16.340;2023-01-28T12:25:42;99820.81;;;6.08;57.21
16331;BME280;8275;48.206;16.340;2023-01-28T12:28:23;99822.09;;;6.06;57.65
16331;BME280;8275;48.206;16.340;2023-01-28T12:31:13;99821.91;;;6.07;57.92
16331;BME280;8275;48.206;16.340;2023-01-28T12:34:10;99815.84;;;6.05;57.72
16331;BME280;8275;48.206;16.340;2023-01-28T12:36:53;99827.75;;;6.04;57.86
16331;BME280;8275;48.206;16.340;2023-01-28T12:39:40;99820.63;;;6.03;57.52
16331;BME280;8275;48.206;16.340;2023-01-28T12:42:22;99822.31;;;6.04;57.33
16331;BME280;8275;48.206;16.340;2023-01-28T12:44:58;99823.34;;;6.03;57.20
16331;BME280;8275;48.206;16.340;2023-01-28T12:47:34;99827.34;;;6.07;57.83
16331;BME280;8275;48.206;16.340;2023-01-28T12:50:12;99821.44;;;6.10;57.53
16331;BME280;8275;48.206;16.340;2023-01-28T12:52:46;99818.53;;;6.12;56.45
16331;BME280;8275;48.206;16.340;2023-01-28T12:55:21;99825.44;;;6.08;56.30
16331;BME280;8275;48.206;16.340;2023-01-28T12:57:56;99826.88;;;6.10;56.41
16331;BME280;8275;48.206;16.340;2023-01-28T13:00:29;99834.25;;;6.10;56.24
16331;BME280;8275;48.206;16.340;2023-01-28T13:03:09;99824.41;;;6.09;56.42
16331;BME280;8275;48.206;16.340;2023-01-28T13:05:42;99820.81;;;6.08;56.72
16331;BME280;8275;48.206;16.340;2023-01-28T13:08:18;99826.28;;;6.08;56.24
16331;BME280;8275;48.206;16.340;2023-01-28T13:10:50;99834.25;;;6.10;57.00
16331;BME280;8275;48.206;16.340;2023-01-28T13:13:28;99827.97;;;6.09;56.69
16331;BME280;8275;48.206;16.340;2023-01-28T13:15:57;99835.03;;;6.10;55.93
16331;BME280;8275;48.206;16.340;2023-01-28T13:18:33;99832.56;;;6.09;56.35
16331;BME280;8275;48.206;16.340;2023-01-28T13:21:03;99837.75;;;6.10;56.14
16331;BME280;8275;48.206;16.340;2023-01-28T13:23:39;99836.97;;;6.10;55.89
16331;BME280;8275;48.206;16.340;2023-01-28T13:26:25;99840.50;;;6.10;55.84
16331;BME280;8275;48.206;16.340;2023-01-28T13:29:17;99835.28;;;6.09;56.67
16331;BME280;8275;48.206;16.340;2023-01-28T13:31:48;99847.19;;;6.08;56.07
16331;BME280;8275;48.206;16.340;2023-01-28T13:34:42;99842.19;;;6.05;56.10
16331;BME280;8275;48.206;16.340;2023-01-28T13:37:22;99856.63;;;6.05;55.04
16331;BME280;8275;48.206;16.340;2023-01-28T13:39:59;99857.44;;;6.06;56.32
16331;BME280;8275;48.206;16.340;2023-01-28T13:42:30;99851.81;;;6.07;55.33
16331;BME280;8275;48.206;16.340;2023-01-28T13:45:21;99856.63;;;6.05;55.15
16331;BME280;8275;48.206;16.340;2023-01-28T13:47:54;99861.22;;;6.05;54.91
16331;BME280;8275;48.206;16.340;2023-01-28T13:50:37;99861.41;;;6.03;55.25
16331;BME280;8275;48.206;16.340;2023-01-28T13:53:20;99862.50;;;6.02;55.43